KMDH/MDH METAR and TAF weather

Enter ICAO airport designator
Station Type Date Time Source
KMDH METAR 2019/02/22 22:07 UTC NOAA

KMDH 222207Z 08009KT 10SM BKN024 OVC033 07/02 A3022 RMK AO2 T00670017


Station Type Date Time Source
KMDH Decoded METAR 2019/02/22 22:07 UTC NOAA

SOUTHERN ILLINOIS AIRPORT, IL, United States (KMDH) 37-47N 089-15W 130M
Feb 22, 2019 - 05:07 PM EST / 2019.02.22 2207 UTC
Wind: from the E (080 degrees) at 10 MPH (9 KT):0
Visibility: 10 mile(s):0
Sky conditions: overcast
Temperature: 44.1 F (6.7 C)
Dew Point: 35.1 F (1.7 C)
Relative Humidity: 70%
Pressure (altimeter): 30.22 in. Hg (1023 hPa)
ob: KMDH 222207Z 08009KT 10SM BKN024 OVC033 07/02 A3022 RMK AO2 T00670017
cycle: 22

Station Type Date Time Source
KMDH TAF UTC NOAA

Error!


Example: see airport list